sensor_id;sensor_type;location;lat;lon;timestamp;P1;durP1;ratioP1;P2;durP2;ratioP2
35364;SDS011;21464;48.112;11.530;2022-09-02T00:01:15;2.83;;;2.60;;
35364;SDS011;21464;48.112;11.530;2022-09-02T00:03:42;3.25;;;2.88;;
35364;SDS011;21464;48.112;11.530;2022-09-02T00:06:08;2.80;;;2.60;;
35364;SDS011;21464;48.112;11.530;2022-09-02T00:08:36;3.25;;;3.00;;
35364;SDS011;21464;48.112;11.530;2022-09-02T00:11:02;2.80;;;2.60;;
35364;SDS011;21464;48.112;11.530;2022-09-02T00:13:32;3.15;;;2.95;;
35364;SDS011;21464;48.112;11.530;2022-09-02T00:15:58;3.35;;;3.00;;
35364;SDS011;21464;48.112;11.530;2022-09-02T00:18:24;3.22;;;2.85;;
35364;SDS011;21464;48.112;11.530;2022-09-02T00:20:51;4.20;;;3.03;;
35364;SDS011;21464;48.112;11.530;2022-09-02T00:23:17;3.05;;;2.85;;
35364;SDS011;21464;48.112;11.530;2022-09-02T00:25:44;4.10;;;3.15;;
35364;SDS011;21464;48.112;11.530;2022-09-02T00:28:11;3.20;;;2.90;;
35364;SDS011;21464;48.112;11.530;2022-09-02T00:30:38;3.38;;;3.05;;
35364;SDS011;21464;48.112;11.530;2022-09-02T00:33:04;3.03;;;2.83;;
35364;SDS011;21464;48.112;11.530;2022-09-02T00:35:30;3.20;;;2.95;;
35364;SDS011;21464;48.112;11.530;2022-09-02T00:37:56;3.55;;;2.90;;
35364;SDS011;21464;48.112;11.530;2022-09-02T00:40:23;3.15;;;2.50;;
35364;SDS011;21464;48.112;11.530;2022-09-02T00:42:49;3.55;;;3.25;;
35364;SDS011;21464;48.112;11.530;2022-09-02T00:45:16;3.25;;;2.78;;
35364;SDS011;21464;48.112;11.530;2022-09-02T00:47:43;3.20;;;2.90;;
35364;SDS011;21464;48.112;11.530;2022-09-02T00:50:15;3.30;;;3.03;;
35364;SDS011;21464;48.112;11.530;2022-09-02T00:52:43;4.88;;;3.25;;
35364;SDS011;21464;48.112;11.530;2022-09-02T00:55:15;3.45;;;3.15;;
35364;SDS011;21464;48.112;11.530;2022-09-02T00:57:47;3.95;;;3.25;;
35364;SDS011;21464;48.112;11.530;2022-09-02T01:00:22;3.35;;;3.05;;
35364;SDS011;21464;48.112;11.530;2022-09-02T01:02:50;3.50;;;3.00;;
35364;SDS011;21464;48.112;11.530;2022-09-02T01:05:18;4.97;;;3.05;;
35364;SDS011;21464;48.112;11.530;2022-09-02T01:07:45;3.65;;;3.35;;
35364;SDS011;21464;48.112;11.530;2022-09-02T01:10:13;3.20;;;2.90;;
35364;SDS011;21464;48.112;11.530;2022-09-02T01:12:40;3.42;;;3.22;;
35364;SDS011;21464;48.112;11.530;2022-09-02T01:15:08;3.47;;;3.17;;
35364;SDS011;21464;48.112;11.530;2022-09-02T01:17:35;3.50;;;3.20;;
35364;SDS011;21464;48.112;11.530;2022-09-02T01:20:04;3.60;;;3.30;;
35364;SDS011;21464;48.112;11.530;2022-09-02T01:22:31;3.40;;;3.10;;
35364;SDS011;21464;48.112;11.530;2022-09-02T01:24:59;4.28;;;3.13;;
35364;SDS011;21464;48.112;11.530;2022-09-02T01:27:27;4.43;;;2.95;;
35364;SDS011;21464;48.112;11.530;2022-09-02T01:29:54;4.38;;;3.25;;
35364;SDS011;21464;48.112;11.530;2022-09-02T01:32:20;3.70;;;3.40;;
35364;SDS011;21464;48.112;11.530;2022-09-02T01:34:47;4.80;;;3.03;;
35364;SDS011;21464;48.112;11.530;2022-09-02T01:37:13;3.40;;;3.10;;
35364;SDS011;21464;48.112;11.530;2022-09-02T01:39:39;3.95;;;2.95;;
35364;SDS011;21464;48.112;11.530;2022-09-02T01:42:05;3.60;;;3.28;;
35364;SDS011;21464;48.112;11.530;2022-09-02T01:44:32;3.22;;;2.92;;
35364;SDS011;21464;48.112;11.530;2022-09-02T01:46:58;4.97;;;3.53;;
35364;SDS011;21464;48.112;11.530;2022-09-02T01:49:24;3.25;;;2.95;;
35364;SDS011;21464;48.112;11.530;2022-09-02T01:51:53;3.78;;;3.13;;
35364;SDS011;21464;48.112;11.530;2022-09-02T01:54:19;3.47;;;3.20;;
35364;SDS011;21464;48.112;11.530;2022-09-02T01:56:45;3.92;;;3.50;;
35364;SDS011;21464;48.112;11.530;2022-09-02T01:59:11;3.80;;;3.50;;
35364;SDS011;21464;48.112;11.530;2022-09-02T02:01:43;3.33;;;3.10;;
35364;SDS011;21464;48.112;11.530;2022-09-02T02:04:10;3.63;;;3.33;;
35364;SDS011;21464;48.112;11.530;2022-09-02T02:06:40;3.50;;;3.20;;
35364;SDS011;21464;48.112;11.530;2022-09-02T02:09:08;4.03;;;3.70;;
35364;SDS011;21464;48.112;11.530;2022-09-02T02:11:34;3.13;;;2.92;;
35364;SDS011;21464;48.112;11.530;2022-09-02T02:14:00;3.38;;;3.17;;
35364;SDS011;21464;48.112;11.530;2022-09-02T02:16:26;4.70;;;3.25;;
35364;SDS011;21464;48.112;11.530;2022-09-02T02:18:52;3.80;;;3.50;;
35364;SDS011;21464;48.112;11.530;2022-09-02T02:21:19;3.67;;;3.38;;
35364;SDS011;21464;48.112;11.530;2022-09-02T02:23:45;3.78;;;3.38;;
35364;SDS011;21464;48.112;11.530;2022-09-02T02:26:11;3.78;;;3.47;;
35364;SDS011;21464;48.112;11.530;2022-09-02T02:28:37;3.63;;;3.30;;
35364;SDS011;21464;48.112;11.530;2022-09-02T02:31:04;3.30;;;3.00;;
35364;SDS011;21464;48.112;11.530;2022-09-02T02:33:30;3.83;;;3.53;;
35364;SDS011;21464;48.112;11.530;2022-09-02T02:35:57;3.72;;;3.40;;
35364;SDS011;21464;48.112;11.530;2022-09-02T02:38:23;3.58;;;3.38;;
35364;SDS011;21464;48.112;11.530;2022-09-02T02:40:53;4.43;;;3.45;;
35364;SDS011;21464;48.112;11.530;2022-09-02T02:43:19;3.90;;;3.60;;
35364;SDS011;21464;48.112;11.530;2022-09-02T02:45:45;4.18;;;3.25;;
35364;SDS011;21464;48.112;11.530;2022-09-02T02:48:11;3.88;;;3.65;;
35364;SDS011;21464;48.112;11.530;2022-09-02T02:50:40;4.88;;;3.60;;
35364;SDS011;21464;48.112;11.530;2022-09-02T02:53:07;3.92;;;3.63;;
35364;SDS011;21464;48.112;11.530;2022-09-02T02:55:33;4.03;;;3.63;;
35364;SDS011;21464;48.112;11.530;2022-09-02T02:58:00;4.63;;;4.07;;
35364;SDS011;21464;48.112;11.530;2022-09-02T03:00:27;3.83;;;3.53;;
35364;SDS011;21464;48.112;11.530;2022-09-02T03:03:01;3.83;;;3.53;;
35364;SDS011;21464;48.112;11.530;2022-09-02T03:05:28;4.03;;;3.63;;
35364;SDS011;21464;48.112;11.530;2022-09-02T03:07:55;4.22;;;3.85;;
35364;SDS011;21464;48.112;11.530;2022-09-02T03:10:21;4.80;;;4.50;;
35364;SDS011;21464;48.112;11.530;2022-09-02T03:12:48;5.70;;;5.10;;
35364;SDS011;21464;48.112;11.530;2022-09-02T03:15:18;4.88;;;4.25;;
35364;SDS011;21464;48.112;11.530;2022-09-02T03:17:46;5.88;;;4.18;;
35364;SDS011;21464;48.112;11.530;2022-09-02T03:20:13;5.22;;;4.05;;
35364;SDS011;21464;48.112;11.530;2022-09-02T03:22:42;4.97;;;4.28;;
35364;SDS011;21464;48.112;11.530;2022-09-02T03:25:09;4.32;;;3.92;;
35364;SDS011;21464;48.112;11.530;2022-09-02T03:27:36;4.47;;;4.18;;
35364;SDS011;21464;48.112;11.530;2022-09-02T03:30:04;4.15;;;3.85;;
35364;SDS011;21464;48.112;11.530;2022-09-02T03:32:30;4.88;;;3.95;;
35364;SDS011;21464;48.112;11.530;2022-09-02T03:34:57;5.00;;;4.60;;
35364;SDS011;21464;48.112;11.530;2022-09-02T03:37:23;4.78;;;4.25;;
35364;SDS011;21464;48.112;11.530;2022-09-02T03:39:49;4.40;;;4.00;;
35364;SDS011;21464;48.112;11.530;2022-09-02T03:42:15;4.75;;;4.22;;
35364;SDS011;21464;48.112;11.530;2022-09-02T03:44:41;4.78;;;4.38;;
35364;SDS011;21464;48.112;11.530;2022-09-02T03:47:07;5.63;;;5.03;;
35364;SDS011;21464;48.112;11.530;2022-09-02T03:49:33;5.22;;;4.70;;
35364;SDS011;21464;48.112;11.530;2022-09-02T03:51:59;5.13;;;4.43;;
35364;SDS011;21464;48.112;11.530;2022-09-02T03:54:25;7.60;;;6.70;;
35364;SDS011;21464;48.112;11.530;2022-09-02T03:56:51;5.70;;;5.15;;
35364;SDS011;21464;48.112;11.530;2022-09-02T03:59:17;5.43;;;4.60;;
35364;SDS011;21464;48.112;11.530;2022-09-02T04:01:44;5.32;;;4.68;;
35364;SDS011;21464;48.112;11.530;2022-09-02T04:04:10;10.88;;;7.80;;
35364;SDS011;21464;48.112;11.530;2022-09-02T04:06:38;6.53;;;5.90;;
35364;SDS011;21464;48.112;11.530;2022-09-02T04:09:04;7.55;;;5.68;;
35364;SDS011;21464;48.112;11.530;2022-09-02T04:11:32;6.68;;;5.50;;
35364;SDS011;21464;48.112;11.530;2022-09-02T04:13:58;6.03;;;5.53;;
35364;SDS011;21464;48.112;11.530;2022-09-02T04:16:26;6.03;;;5.53;;
35364;SDS011;21464;48.112;11.530;2022-09-02T04:18:56;5.57;;;5.07;;
35364;SDS011;21464;48.112;11.530;2022-09-02T04:21:23;5.95;;;5.40;;
35364;SDS011;21464;48.112;11.530;2022-09-02T04:23:49;8.50;;;6.75;;
35364;SDS011;21464;48.112;11.530;2022-09-02T04:26:17;5.95;;;5.30;;
35364;SDS011;21464;48.112;11.530;2022-09-02T04:28:45;6.18;;;5.63;;
35364;SDS011;21464;48.112;11.530;2022-09-02T04:31:12;7.57;;;6.75;;
35364;SDS011;21464;48.112;11.530;2022-09-02T04:33:39;5.70;;;5.05;;
35364;SDS011;21464;48.112;11.530;2022-09-02T04:36:11;11.65;;;9.13;;
35364;SDS011;21464;48.112;11.530;2022-09-02T04:38:38;7.43;;;6.68;;
35364;SDS011;21464;48.112;11.530;2022-09-02T04:41:05;8.02;;;7.15;;
35364;SDS011;21464;48.112;11.530;2022-09-02T04:43:31;5.97;;;5.47;;
35364;SDS011;21464;48.112;11.530;2022-09-02T04:45:57;7.13;;;5.70;;
35364;SDS011;21464;48.112;11.530;2022-09-02T04:48:23;7.28;;;5.28;;
35364;SDS011;21464;48.112;11.530;2022-09-02T04:50:49;16.02;;;12.95;;
35364;SDS011;21464;48.112;11.530;2022-09-02T04:53:16;13.00;;;9.15;;
35364;SDS011;21464;48.112;11.530;2022-09-02T04:55:42;17.92;;;13.43;;
35364;SDS011;21464;48.112;11.530;2022-09-02T04:58:11;16.30;;;13.52;;
35364;SDS011;21464;48.112;11.530;2022-09-02T05:00:37;8.50;;;7.68;;
35364;SDS011;21464;48.112;11.530;2022-09-02T05:03:06;8.45;;;7.60;;
35364;SDS011;21464;48.112;11.530;2022-09-02T05:05:33;8.23;;;6.13;;
35364;SDS011;21464;48.112;11.530;2022-09-02T05:08:00;6.85;;;6.25;;
35364;SDS011;21464;48.112;11.530;2022-09-02T05:10:29;8.50;;;7.40;;
35364;SDS011;21464;48.112;11.530;2022-09-02T05:12:58;6.00;;;5.50;;
35364;SDS011;21464;48.112;11.530;2022-09-02T05:15:26;6.97;;;6.28;;
35364;SDS011;21464;48.112;11.530;2022-09-02T05:17:53;6.38;;;5.82;;
35364;SDS011;21464;48.112;11.530;2022-09-02T05:20:19;10.13;;;9.10;;
35364;SDS011;21464;48.112;11.530;2022-09-02T05:22:45;8.30;;;7.50;;
35364;SDS011;21464;48.112;11.530;2022-09-02T05:25:13;7.57;;;6.82;;
35364;SDS011;21464;48.112;11.530;2022-09-02T05:27:39;7.10;;;5.97;;
35364;SDS011;21464;48.112;11.530;2022-09-02T05:30:07;7.45;;;6.65;;
35364;SDS011;21464;48.112;11.530;2022-09-02T05:32:34;6.80;;;6.10;;
35364;SDS011;21464;48.112;11.530;2022-09-02T05:35:01;7.10;;;6.40;;
35364;SDS011;21464;48.112;11.530;2022-09-02T05:37:27;7.25;;;5.68;;
35364;SDS011;21464;48.112;11.530;2022-09-02T05:39:53;5.70;;;5.30;;
35364;SDS011;21464;48.112;11.530;2022-09-02T05:42:19;6.82;;;5.53;;
35364;SDS011;21464;48.112;11.530;2022-09-02T05:44:47;6.22;;;5.72;;
35364;SDS011;21464;48.112;11.530;2022-09-02T05:47:16;6.40;;;5.80;;
35364;SDS011;21464;48.112;11.530;2022-09-02T05:49:43;6.88;;;6.28;;
35364;SDS011;21464;48.112;11.530;2022-09-02T05:52:12;6.57;;;5.97;;
35364;SDS011;21464;48.112;11.530;2022-09-02T05:54:41;6.22;;;5.72;;
35364;SDS011;21464;48.112;11.530;2022-09-02T05:57:13;6.68;;;6.03;;
35364;SDS011;21464;48.112;11.530;2022-09-02T05:59:51;7.47;;;6.03;;
35364;SDS011;21464;48.112;11.530;2022-09-02T06:02:23;6.32;;;5.72;;
35364;SDS011;21464;48.112;11.530;2022-09-02T06:04:50;7.00;;;6.20;;
35364;SDS011;21464;48.112;11.530;2022-09-02T06:07:20;6.80;;;6.20;;
35364;SDS011;21464;48.112;11.530;2022-09-02T06:09:48;7.15;;;5.90;;
35364;SDS011;21464;48.112;11.530;2022-09-02T06:12:16;6.35;;;5.60;;
35364;SDS011;21464;48.112;11.530;2022-09-02T06:14:43;6.10;;;5.50;;
35364;SDS011;21464;48.112;11.530;2022-09-02T06:17:10;6.25;;;5.65;;
35364;SDS011;21464;48.112;11.530;2022-09-02T06:19:47;6.07;;;5.68;;
35364;SDS011;21464;48.112;11.530;2022-09-02T06:22:14;7.05;;;6.35;;
35364;SDS011;21464;48.112;11.530;2022-09-02T06:24:41;6.97;;;6.38;;
35364;SDS011;21464;48.112;11.530;2022-09-02T06:27:12;6.72;;;6.15;;
35364;SDS011;21464;48.112;11.530;2022-09-02T06:29:42;6.10;;;5.50;;
35364;SDS011;21464;48.112;11.530;2022-09-02T06:32:09;6.03;;;5.53;;
35364;SDS011;21464;48.112;11.530;2022-09-02T06:34:35;9.93;;;5.95;;
35364;SDS011;21464;48.112;11.530;2022-09-02T06:37:02;10.60;;;5.40;;
35364;SDS011;21464;48.112;11.530;2022-09-02T06:39:28;5.25;;;4.82;;
35364;SDS011;21464;48.112;11.530;2022-09-02T06:41:56;5.55;;;5.03;;
35364;SDS011;21464;48.112;11.530;2022-09-02T06:44:25;5.35;;;4.90;;
35364;SDS011;21464;48.112;11.530;2022-09-02T06:46:55;5.80;;;5.30;;
35364;SDS011;21464;48.112;11.530;2022-09-02T06:49:22;5.68;;;5.13;;
35364;SDS011;21464;48.112;11.530;2022-09-02T06:51:51;5.97;;;5.38;;
35364;SDS011;21464;48.112;11.530;2022-09-02T06:54:19;4.88;;;4.45;;
35364;SDS011;21464;48.112;11.530;2022-09-02T06:56:48;5.13;;;4.63;;
35364;SDS011;21464;48.112;11.530;2022-09-02T06:59:18;4.75;;;4.35;;
35364;SDS011;21464;48.112;11.530;2022-09-02T07:01:51;4.75;;;4.35;;
35364;SDS011;21464;48.112;11.530;2022-09-02T07:04:20;4.65;;;4.25;;
35364;SDS011;21464;48.112;11.530;2022-09-02T07:07:06;5.47;;;4.50;;
35364;SDS011;21464;48.112;11.530;2022-09-02T07:09:38;5.68;;;4.82;;
35364;SDS011;21464;48.112;11.530;2022-09-02T07:12:11;5.15;;;4.65;;
35364;SDS011;21464;48.112;11.530;2022-09-02T07:14:46;5.60;;;4.97;;
35364;SDS011;21464;48.112;11.530;2022-09-02T07:17:14;5.20;;;4.63;;
35364;SDS011;21464;48.112;11.530;2022-09-02T07:19:43;5.15;;;4.70;;
35364;SDS011;21464;48.112;11.530;2022-09-02T07:22:10;4.78;;;4.38;;
35364;SDS011;21464;48.112;11.530;2022-09-02T07:24:40;6.35;;;4.85;;
35364;SDS011;21464;48.112;11.530;2022-09-02T07:27:07;5.93;;;5.25;;
35364;SDS011;21464;48.112;11.530;2022-09-02T07:29:34;6.28;;;4.93;;
35364;SDS011;21464;48.112;11.530;2022-09-02T07:32:00;10.68;;;8.18;;
35364;SDS011;21464;48.112;11.530;2022-09-02T07:34:27;5.05;;;4.55;;
35364;SDS011;21464;48.112;11.530;2022-09-02T07:36:54;5.18;;;4.68;;
35364;SDS011;21464;48.112;11.530;2022-09-02T07:39:22;6.40;;;5.78;;
35364;SDS011;21464;48.112;11.530;2022-09-02T07:41:48;4.90;;;4.50;;
35364;SDS011;21464;48.112;11.530;2022-09-02T07:44:17;3.50;;;3.20;;
35364;SDS011;21464;48.112;11.530;2022-09-02T07:46:43;6.03;;;5.40;;
35364;SDS011;21464;48.112;11.530;2022-09-02T07:49:10;3.30;;;3.10;;
35364;SDS011;21464;48.112;11.530;2022-09-02T07:51:38;4.00;;;3.60;;
35364;SDS011;21464;48.112;11.530;2022-09-02T07:54:05;4.38;;;3.85;;
35364;SDS011;21464;48.112;11.530;2022-09-02T07:56:31;3.83;;;3.47;;
35364;SDS011;21464;48.112;11.530;2022-09-02T07:58:58;5.45;;;4.25;;
35364;SDS011;21464;48.112;11.530;2022-09-02T08:01:24;6.60;;;5.32;;
35364;SDS011;21464;48.112;11.530;2022-09-02T08:03:52;6.88;;;5.13;;
35364;SDS011;21464;48.112;11.530;2022-09-02T08:06:20;11.25;;;5.70;;
35364;SDS011;21464;48.112;11.530;2022-09-02T08:08:48;4.80;;;4.40;;
35364;SDS011;21464;48.112;11.530;2022-09-02T08:11:14;4.68;;;4.13;;
35364;SDS011;21464;48.112;11.530;2022-09-02T08:13:40;6.00;;;3.50;;
35364;SDS011;21464;48.112;11.530;2022-09-02T08:16:06;4.38;;;3.35;;
35364;SDS011;21464;48.112;11.530;2022-09-02T08:18:32;4.00;;;3.60;;
35364;SDS011;21464;48.112;11.530;2022-09-02T08:20:59;3.88;;;3.33;;
35364;SDS011;21464;48.112;11.530;2022-09-02T08:23:24;3.72;;;2.50;;
35364;SDS011;21464;48.112;11.530;2022-09-02T08:25:50;3.55;;;2.80;;
35364;SDS011;21464;48.112;11.530;2022-09-02T08:28:16;3.03;;;2.63;;
35364;SDS011;21464;48.112;11.530;2022-09-02T08:30:42;2.72;;;2.53;;
35364;SDS011;21464;48.112;11.530;2022-09-02T08:33:08;2.95;;;2.60;;
35364;SDS011;21464;48.112;11.530;2022-09-02T08:35:34;3.05;;;2.70;;
35364;SDS011;21464;48.112;11.530;2022-09-02T08:38:00;3.65;;;2.35;;
35364;SDS011;21464;48.112;11.530;2022-09-02T08:40:36;2.35;;;2.20;;
35364;SDS011;21464;48.112;11.530;2022-09-02T08:43:04;2.47;;;2.30;;
35364;SDS011;21464;48.112;11.530;2022-09-02T08:45:35;3.75;;;2.50;;
35364;SDS011;21464;48.112;11.530;2022-09-02T08:48:06;2.55;;;2.10;;
35364;SDS011;21464;48.112;11.530;2022-09-02T08:50:34;2.33;;;2.17;;
35364;SDS011;21464;48.112;11.530;2022-09-02T08:55:32;2.00;;;1.90;;
35364;SDS011;21464;48.112;11.530;2022-09-02T08:58:01;2.75;;;2.55;;
35364;SDS011;21464;48.112;11.530;2022-09-02T09:00:28;1.92;;;1.83;;
35364;SDS011;21464;48.112;11.530;2022-09-02T09:03:03;1.83;;;1.73;;
35364;SDS011;21464;48.112;11.530;2022-09-02T09:08:15;2.10;;;1.80;;
35364;SDS011;21464;48.112;11.530;2022-09-02T09:15:55;2.03;;;1.83;;
35364;SDS011;21464;48.112;11.530;2022-09-02T09:21:01;3.97;;;2.00;;
35364;SDS011;21464;48.112;11.530;2022-09-02T09:23:35;2.20;;;1.92;;
35364;SDS011;21464;48.112;11.530;2022-09-02T09:26:12;1.88;;;1.73;;
35364;SDS011;21464;48.112;11.530;2022-09-02T09:28:39;2.35;;;2.05;;
35364;SDS011;21464;48.112;11.530;2022-09-02T09:31:10;2.83;;;2.40;;
35364;SDS011;21464;48.112;11.530;2022-09-02T09:33:36;2.70;;;2.22;;
35364;SDS011;21464;48.112;11.530;2022-09-02T09:36:02;3.67;;;2.20;;
35364;SDS011;21464;48.112;11.530;2022-09-02T09:38:33;2.28;;;1.90;;
35364;SDS011;21464;48.112;11.530;2022-09-02T09:41:33;2.85;;;1.90;;
35364;SDS011;21464;48.112;11.530;2022-09-02T09:43:53;3.03;;;2.15;;
35364;SDS011;21464;48.112;11.530;2022-09-02T09:46:29;2.13;;;1.92;;
35364;SDS011;21464;48.112;11.530;2022-09-02T09:48:56;2.08;;;1.92;;
35364;SDS011;21464;48.112;11.530;2022-09-02T09:51:22;2.00;;;1.90;;
35364;SDS011;21464;48.112;11.530;2022-09-02T09:53:48;2.13;;;2.03;;
35364;SDS011;21464;48.112;11.530;2022-09-02T09:58:41;3.85;;;1.98;;
35364;SDS011;21464;48.112;11.530;2022-09-02T10:01:18;5.72;;;2.70;;
35364;SDS011;21464;48.112;11.530;2022-09-02T10:03:49;2.92;;;2.40;;
35364;SDS011;21464;48.112;11.530;2022-09-02T10:08:50;8.10;;;2.83;;
35364;SDS011;21464;48.112;11.530;2022-09-02T10:11:38;4.38;;;2.90;;
35364;SDS011;21464;48.112;11.530;2022-09-02T10:14:04;2.42;;;1.75;;
35364;SDS011;21464;48.112;11.530;2022-09-02T10:26:49;2.50;;;1.98;;
35364;SDS011;21464;48.112;11.530;2022-09-02T10:40:09;1.55;;;1.30;;
35364;SDS011;21464;48.112;11.530;2022-09-02T10:42:23;1.70;;;1.60;;
35364;SDS011;21464;48.112;11.530;2022-09-02T10:47:36;2.05;;;1.77;;
35364;SDS011;21464;48.112;11.530;2022-09-02T11:05:28;5.00;;;2.78;;
35364;SDS011;21464;48.112;11.530;2022-09-02T11:08:00;8.98;;;6.53;;
35364;SDS011;21464;48.112;11.530;2022-09-02T11:10:30;2.90;;;2.55;;
35364;SDS011;21464;48.112;11.530;2022-09-02T11:13:05;3.10;;;2.80;;
35364;SDS011;21464;48.112;11.530;2022-09-02T11:23:12;4.63;;;3.85;;
35364;SDS011;21464;48.112;11.530;2022-09-02T11:33:13;1.88;;;1.75;;
35364;SDS011;21464;48.112;11.530;2022-09-02T11:35:40;2.30;;;2.10;;
35364;SDS011;21464;48.112;11.530;2022-09-02T11:43:18;2.38;;;1.25;;
35364;SDS011;21464;48.112;11.530;2022-09-02T11:53:39;3.40;;;2.70;;
35364;SDS011;21464;48.112;11.530;2022-09-02T11:58:39;6.35;;;4.30;;
35364;SDS011;21464;48.112;11.530;2022-09-02T12:01:15;4.03;;;3.67;;
35364;SDS011;21464;48.112;11.530;2022-09-02T12:03:44;2.63;;;2.00;;
35364;SDS011;21464;48.112;11.530;2022-09-02T12:06:13;3.65;;;2.78;;
35364;SDS011;21464;48.112;11.530;2022-09-02T12:11:07;2.38;;;2.17;;
35364;SDS011;21464;48.112;11.530;2022-09-02T12:18:41;1.85;;;1.70;;
35364;SDS011;21464;48.112;11.530;2022-09-02T12:21:17;2.13;;;1.83;;
35364;SDS011;21464;48.112;11.530;2022-09-02T12:26:16;1.90;;;1.63;;
35364;SDS011;21464;48.112;11.530;2022-09-02T12:28:42;2.53;;;1.75;;
35364;SDS011;21464;48.112;11.530;2022-09-02T12:31:12;3.60;;;1.65;;
35364;SDS011;21464;48.112;11.530;2022-09-02T12:33:47;10.23;;;2.67;;
35364;SDS011;21464;48.112;11.530;2022-09-02T12:41:45;4.10;;;2.78;;
35364;SDS011;21464;48.112;11.530;2022-09-02T12:54:39;1.30;;;1.20;;
35364;SDS011;21464;48.112;11.530;2022-09-02T12:57:06;1.20;;;1.20;;
35364;SDS011;21464;48.112;11.530;2022-09-02T12:59:39;2.88;;;1.20;;
35364;SDS011;21464;48.112;11.530;2022-09-02T13:14:52;2.78;;;1.73;;
35364;SDS011;21464;48.112;11.530;2022-09-02T13:32:32;4.97;;;4.00;;
35364;SDS011;21464;48.112;11.530;2022-09-02T13:35:05;7.88;;;5.75;;
35364;SDS011;21464;48.112;11.530;2022-09-02T13:39:58;2.22;;;1.92;;
35364;SDS011;21464;48.112;11.530;2022-09-02T13:42:26;2.75;;;1.77;;
35364;SDS011;21464;48.112;11.530;2022-09-02T13:47:39;2.50;;;1.80;;
35364;SDS011;21464;48.112;11.530;2022-09-02T13:50:06;4.07;;;3.67;;
35364;SDS011;21464;48.112;11.530;2022-09-02T13:52:32;2.92;;;2.65;;
35364;SDS011;21464;48.112;11.530;2022-09-02T13:55:01;9.73;;;6.35;;
35364;SDS011;21464;48.112;11.530;2022-09-02T13:57:28;3.33;;;2.80;;
35364;SDS011;21464;48.112;11.530;2022-09-02T13:59:55;7.70;;;6.05;;
35364;SDS011;21464;48.112;11.530;2022-09-02T14:07:25;3.80;;;2.45;;
35364;SDS011;21464;48.112;11.530;2022-09-02T14:09:52;4.93;;;4.07;;
35364;SDS011;21464;48.112;11.530;2022-09-02T14:12:18;4.72;;;3.22;;
35364;SDS011;21464;48.112;11.530;2022-09-02T14:14:44;3.50;;;2.55;;
35364;SDS011;21464;48.112;11.530;2022-09-02T14:17:17;3.00;;;2.30;;
35364;SDS011;21464;48.112;11.530;2022-09-02T14:19:43;2.83;;;2.63;;
35364;SDS011;21464;48.112;11.530;2022-09-02T14:22:21;4.13;;;2.45;;
35364;SDS011;21464;48.112;11.530;2022-09-02T14:24:47;2.45;;;1.58;;
35364;SDS011;21464;48.112;11.530;2022-09-02T14:27:15;3.00;;;2.30;;
35364;SDS011;21464;48.112;11.530;2022-09-02T14:29:42;1.80;;;1.60;;
35364;SDS011;21464;48.112;11.530;2022-09-02T14:32:12;1.67;;;1.48;;
35364;SDS011;21464;48.112;11.530;2022-09-02T14:42:25;2.60;;;1.52;;
35364;SDS011;21464;48.112;11.530;2022-09-02T14:44:51;1.75;;;1.40;;
35364;SDS011;21464;48.112;11.530;2022-09-02T14:47:17;1.48;;;1.30;;
35364;SDS011;21464;48.112;11.530;2022-09-02T14:49:45;1.42;;;1.33;;
35364;SDS011;21464;48.112;11.530;2022-09-02T14:52:16;2.17;;;1.50;;
35364;SDS011;21464;48.112;11.530;2022-09-02T14:54:44;3.53;;;2.80;;
35364;SDS011;21464;48.112;11.530;2022-09-02T14:57:19;2.58;;;2.15;;
35364;SDS011;21464;48.112;11.530;2022-09-02T14:59:45;5.75;;;3.63;;
35364;SDS011;21464;48.112;11.530;2022-09-02T15:04:56;2.33;;;2.13;;
35364;SDS011;21464;48.112;11.530;2022-09-02T15:07:22;5.18;;;3.78;;
35364;SDS011;21464;48.112;11.530;2022-09-02T15:09:48;2.17;;;1.98;;
35364;SDS011;21464;48.112;11.530;2022-09-02T15:12:27;2.42;;;2.22;;
35364;SDS011;21464;48.112;11.530;2022-09-02T15:14:54;2.97;;;1.73;;
35364;SDS011;21464;48.112;11.530;2022-09-02T15:17:21;2.95;;;2.22;;
35364;SDS011;21464;48.112;11.530;2022-09-02T15:19:47;3.55;;;2.10;;
35364;SDS011;21464;48.112;11.530;2022-09-02T15:22:13;2.10;;;1.90;;
35364;SDS011;21464;48.112;11.530;2022-09-02T15:24:40;2.30;;;2.08;;
35364;SDS011;21464;48.112;11.530;2022-09-02T15:27:08;1.60;;;1.50;;
35364;SDS011;21464;48.112;11.530;2022-09-02T15:29:34;2.88;;;1.95;;
35364;SDS011;21464;48.112;11.530;2022-09-02T15:32:00;2.90;;;2.05;;
35364;SDS011;21464;48.112;11.530;2022-09-02T15:34:29;3.17;;;2.20;;
35364;SDS011;21464;48.112;11.530;2022-09-02T15:36:55;3.13;;;1.70;;
35364;SDS011;21464;48.112;11.530;2022-09-02T15:39:22;2.83;;;1.88;;
35364;SDS011;21464;48.112;11.530;2022-09-02T15:41:48;1.63;;;1.52;;
35364;SDS011;21464;48.112;11.530;2022-09-02T15:44:19;1.85;;;1.70;;
35364;SDS011;21464;48.112;11.530;2022-09-02T15:46:45;1.52;;;1.42;;
35364;SDS011;21464;48.112;11.530;2022-09-02T15:49:11;2.28;;;1.92;;
35364;SDS011;21464;48.112;11.530;2022-09-02T15:51:38;1.73;;;1.50;;
35364;SDS011;21464;48.112;11.530;2022-09-02T15:54:05;1.77;;;1.67;;
35364;SDS011;21464;48.112;11.530;2022-09-02T15:56:31;1.58;;;1.48;;
35364;SDS011;21464;48.112;11.530;2022-09-02T15:58:59;1.50;;;1.40;;
35364;SDS011;21464;48.112;11.530;2022-09-02T16:01:26;2.78;;;1.45;;
35364;SDS011;21464;48.112;11.530;2022-09-02T16:03:53;2.22;;;1.30;;
35364;SDS011;21464;48.112;11.530;2022-09-02T16:06:19;1.67;;;1.50;;
35364;SDS011;21464;48.112;11.530;2022-09-02T16:08:45;1.80;;;1.65;;
35364;SDS011;21464;48.112;11.530;2022-09-02T16:11:11;1.63;;;1.52;;
35364;SDS011;21464;48.112;11.530;2022-09-02T16:13:37;7.55;;;5.30;;
35364;SDS011;21464;48.112;11.530;2022-09-02T16:16:04;13.70;;;10.60;;
35364;SDS011;21464;48.112;11.530;2022-09-02T16:18:31;4.00;;;3.53;;
35364;SDS011;21464;48.112;11.530;2022-09-02T16:20:57;4.40;;;3.13;;
35364;SDS011;21464;48.112;11.530;2022-09-02T16:23:23;2.63;;;2.08;;
35364;SDS011;21464;48.112;11.530;2022-09-02T16:26:04;4.25;;;2.30;;
35364;SDS011;21464;48.112;11.530;2022-09-02T16:28:33;4.47;;;2.67;;
35364;SDS011;21464;48.112;11.530;2022-09-02T16:30:59;2.75;;;2.28;;
35364;SDS011;21464;48.112;11.530;2022-09-02T16:33:24;2.10;;;1.90;;
35364;SDS011;21464;48.112;11.530;2022-09-02T16:35:50;4.18;;;1.55;;
35364;SDS011;21464;48.112;11.530;2022-09-02T16:38:16;2.35;;;1.52;;
35364;SDS011;21464;48.112;11.530;2022-09-02T16:40:52;2.28;;;1.60;;
35364;SDS011;21464;48.112;11.530;2022-09-02T16:43:18;1.85;;;1.65;;
35364;SDS011;21464;48.112;11.530;2022-09-02T16:45:46;2.08;;;1.70;;
35364;SDS011;21464;48.112;11.530;2022-09-02T16:48:12;1.40;;;1.30;;
35364;SDS011;21464;48.112;11.530;2022-09-02T16:50:38;3.13;;;1.58;;
35364;SDS011;21464;48.112;11.530;2022-09-02T16:53:04;1.45;;;1.38;;
35364;SDS011;21464;48.112;11.530;2022-09-02T16:55:30;1.98;;;1.23;;
35364;SDS011;21464;48.112;11.530;2022-09-02T16:57:56;2.00;;;1.50;;
35364;SDS011;21464;48.112;11.530;2022-09-02T17:00:25;1.77;;;1.60;;
35364;SDS011;21464;48.112;11.530;2022-09-02T17:02:51;1.48;;;1.40;;
35364;SDS011;21464;48.112;11.530;2022-09-02T17:05:17;1.70;;;1.52;;
35364;SDS011;21464;48.112;11.530;2022-09-02T17:07:43;4.60;;;3.53;;
35364;SDS011;21464;48.112;11.530;2022-09-02T17:10:10;11.95;;;8.50;;
35364;SDS011;21464;48.112;11.530;2022-09-02T17:12:36;4.25;;;3.00;;
35364;SDS011;21464;48.112;11.530;2022-09-02T17:15:02;3.53;;;3.17;;
35364;SDS011;21464;48.112;11.530;2022-09-02T17:17:29;1.95;;;1.80;;
35364;SDS011;21464;48.112;11.530;2022-09-02T17:19:55;18.80;;;13.95;;